TimeEST,TemperatureF,Dew PointF,Humidity,Sea Level PressureIn,VisibilityMPH,Wind Direction,Wind SpeedMPH,Gust SpeedMPH,PrecipitationIn,Events,Conditions,WindDirDegrees,DateUTC
12:15 AM,28.2,27.5,97,30.51,0.2,Calm,Calm,-,N/A,Fog,Light Freezing Fog,0,2013-01-10 05:15:00
12:35 AM,27.0,26.2,97,30.51,0.2,Calm,Calm,-,N/A,Fog,Light Freezing Fog,0,2013-01-10 05:35:00
12:55 AM,26.2,25.5,97,30.52,0.2,Calm,Calm,-,N/A,Fog,Light Freezing Fog,0,2013-01-10 05:55:00
1:15 AM,26.8,26.1,97,30.53,0.2,Calm,Calm,-,N/A,Fog,Light Freezing Fog,0,2013-01-10 06:15:00
1:35 AM,26.1,25.5,98,30.53,0.2,Calm,Calm,-,N/A,Fog,Light Freezing Fog,0,2013-01-10 06:35:00
3:35 AM,25.0,23.9,96,30.52,0.2,Calm,Calm,-,N/A,Fog,Light Freezing Fog,0,2013-01-10 08:35:00
3:55 AM,24.6,23.5,96,30.51,0.2,Calm,Calm,-,N/A,Fog,Light Freezing Fog,0,2013-01-10 08:55:00
4:15 AM,24.4,23.4,96,30.51,0.2,Calm,Calm,-,N/A,Fog,Light Freezing Fog,0,2013-01-10 09:15:00
4:35 AM,24.3,23.0,95,30.50,0.2,Calm,Calm,-,N/A,Fog,Light Freezing Fog,0,2013-01-10 09:35:00
4:55 AM,24.1,23.0,96,30.50,0.2,Calm,Calm,-,N/A,Fog,Light Freezing Fog,0,2013-01-10 09:55:00
5:15 AM,23.7,22.6,96,30.50,0.2,Calm,Calm,-,N/A,Fog,Light Freezing Fog,0,2013-01-10 10:15:00
5:35 AM,23.7,22.6,96,30.50,0.2,Calm,Calm,-,N/A,Fog,Light Freezing Fog,0,2013-01-10 10:35:00
5:55 AM,23.5,22.5,96,30.51,0.2,Calm,Calm,-,N/A,Fog,Light Freezing Fog,0,2013-01-10 10:55:00
6:15 AM,23.7,22.6,96,30.50,0.2,Calm,Calm,-,N/A,Fog,Light Freezing Fog,0,2013-01-10 11:15:00
6:35 AM,24.3,23.0,95,30.52,0.2,Calm,Calm,-,N/A,Fog,Light Freezing Fog,0,2013-01-10 11:35:00
6:55 AM,24.4,23.2,95,30.52,0.2,Calm,Calm,-,N/A,Fog,Light Freezing Fog,0,2013-01-10 11:55:00
7:35 AM,25.2,23.9,95,30.54,4.0,Calm,Calm,-,N/A,,Scattered Clouds,0,2013-01-10 12:35:00
7:55 AM,25.2,24.1,96,30.54,4.0,Calm,Calm,-,N/A,,Scattered Clouds,0,2013-01-10 12:55:00
8:15 AM,25.7,24.8,96,30.54,4.0,Calm,Calm,-,N/A,,Scattered Clouds,0,2013-01-10 13:15:00
8:35 AM,25.7,24.8,96,30.55,5.0,Calm,Calm,-,N/A,,Clear,0,2013-01-10 13:35:00
8:55 AM,26.6,25.7,96,30.56,5.0,Calm,Calm,-,N/A,,Clear,0,2013-01-10 13:55:00
9:15 AM,27.0,26.1,96,30.56,5.0,Calm,Calm,-,N/A,,Clear,0,2013-01-10 14:15:00
9:35 AM,28.4,27.5,96,30.55,5.0,ENE,3.5,-,N/A,,Clear,70,2013-01-10 14:35:00
9:55 AM,28.9,28.2,97,30.55,7.0,Calm,Calm,-,N/A,,Clear,0,2013-01-10 14:55:00
10:15 AM,29.7,28.9,97,30.56,7.0,Calm,Calm,-,N/A,,Clear,0,2013-01-10 15:15:00
10:35 AM,30.9,30.2,97,30.55,7.0,Calm,Calm,-,N/A,,Clear,0,2013-01-10 15:35:00
10:55 AM,31.3,30.6,97,30.55,7.0,Calm,Calm,-,N/A,,Clear,0,2013-01-10 15:55:00
11:15 AM,32.0,31.1,96,30.55,7.0,Calm,Calm,-,N/A,,Clear,0,2013-01-10 16:15:00
11:35 AM,33.1,32.4,97,30.53,10.0,NNE,3.5,-,N/A,,Clear,30,2013-01-10 16:35:00
11:55 AM,34.5,33.6,97,30.52,10.0,Calm,Calm,-,N/A,,Clear,0,2013-01-10 16:55:00
12:15 PM,35.8,34.9,97,30.51,10.0,Calm,Calm,-,N/A,,Clear,0,2013-01-10 17:15:00
12:35 PM,36.5,35.6,97,30.48,10.0,ENE,4.6,-,N/A,,Clear,60,2013-01-10 17:35:00
12:55 PM,37.4,36.1,95,30.49,10.0,Calm,Calm,-,N/A,,Clear,0,2013-01-10 17:55:00
1:15 PM,37.9,36.5,95,30.48,10.0,NE,3.5,-,N/A,,Clear,40,2013-01-10 18:15:00
1:35 PM,38.8,37.0,93,30.46,10.0,NE,5.8,-,N/A,,Clear,50,2013-01-10 18:35:00
1:55 PM,39.6,36.7,89,30.44,10.0,ENE,9.2,-,N/A,,Clear,60,2013-01-10 18:55:00
2:15 PM,40.5,34.3,79,30.44,10.0,NE,9.2,-,N/A,,Clear,50,2013-01-10 19:15:00
2:35 PM,41.2,33.6,74,30.44,10.0,NE,6.9,-,N/A,,Clear,50,2013-01-10 19:35:00
3:15 PM,42.4,32.4,68,30.42,10.0,East,5.8,-,N/A,,Clear,80,2013-01-10 20:15:00
3:35 PM,43.0,32.5,67,30.40,10.0,ENE,8.1,-,N/A,,Clear,70,2013-01-10 20:35:00
3:55 PM,42.8,32.9,68,30.39,10.0,ENE,5.8,-,N/A,,Scattered Clouds,70,2013-01-10 20:55:00
4:15 PM,43.0,33.3,69,30.38,10.0,NE,5.8,-,N/A,,Overcast,50,2013-01-10 21:15:00
4:35 PM,42.3,33.8,72,30.39,10.0,ENE,5.8,-,N/A,,Overcast,60,2013-01-10 21:35:00
4:55 PM,42.3,33.6,71,30.39,10.0,ENE,4.6,-,N/A,,Overcast,60,2013-01-10 21:55:00
5:15 PM,41.9,33.4,72,30.38,10.0,ENE,4.6,-,N/A,,Overcast,60,2013-01-10 22:15:00
5:35 PM,41.5,33.3,72,30.37,10.0,ENE,5.8,-,N/A,,Overcast,60,2013-01-10 22:35:00
5:55 PM,41.7,32.0,68,30.37,10.0,ENE,3.5,-,N/A,,Mostly Cloudy,70,2013-01-10 22:55:00
6:15 PM,41.0,32.7,72,30.35,10.0,ENE,4.6,-,N/A,,Mostly Cloudy,70,2013-01-10 23:15:00
6:35 PM,41.4,32.2,70,30.35,10.0,East,4.6,-,N/A,,Mostly Cloudy,80,2013-01-10 23:35:00
6:55 PM,42.1,32.0,67,30.34,10.0,East,3.5,-,N/A,,Overcast,80,2013-01-10 23:55:00
7:15 PM,41.0,33.1,73,30.33,10.0,NE,3.5,-,N/A,,Overcast,50,2013-01-11 00:15:00
7:35 PM,41.4,32.5,71,30.33,10.0,NE,3.5,-,N/A,,Overcast,40,2013-01-11 00:35:00
7:55 PM,41.0,33.4,74,30.31,10.0,NE,3.5,-,N/A,,Overcast,40,2013-01-11 00:55:00
8:15 PM,41.4,33.3,73,30.31,10.0,ENE,4.6,-,N/A,,Overcast,60,2013-01-11 01:15:00
8:35 PM,41.4,33.6,74,30.30,10.0,NE,4.6,-,N/A,,Overcast,50,2013-01-11 01:35:00
8:55 PM,41.0,32.5,72,30.29,10.0,NE,3.5,-,N/A,,Scattered Clouds,40,2013-01-11 01:55:00
9:15 PM,40.3,32.7,74,30.29,10.0,NE,4.6,-,N/A,,Scattered Clouds,50,2013-01-11 02:15:00
9:35 PM,40.8,32.4,72,30.27,10.0,NE,4.6,-,N/A,,Scattered Clouds,50,2013-01-11 02:35:00
9:55 PM,40.6,32.4,72,30.26,10.0,ENE,4.6,-,N/A,,Clear,60,2013-01-11 02:55:00
10:15 PM,40.5,32.4,73,30.25,10.0,ENE,5.8,-,N/A,,Clear,60,2013-01-11 03:15:00
10:35 PM,40.1,32.4,74,30.24,10.0,ENE,4.6,-,N/A,,Clear,60,2013-01-11 03:35:00
10:55 PM,40.1,32.0,73,30.22,10.0,ENE,4.6,-,N/A,,Clear,60,2013-01-11 03:55:00
11:15 PM,40.1,32.0,73,30.22,10.0,Calm,Calm,-,N/A,,Clear,0,2013-01-11 04:15:00
11:35 PM,40.1,32.0,73,30.20,10.0,Calm,Calm,-,N/A,,Mostly Cloudy,0,2013-01-11 04:35:00
11:55 PM,40.1,32.2,73,30.19,10.0,Calm,Calm,-,N/A,,Mostly Cloudy,0,2013-01-11 04:55:00